Qm Of London — ZCTD7 — position and weather

sailwx.info

Track history (hours):
 
Tides and Currents Weather Stations Pressure Air Temp Water Temp Dewpoint Dewpoint Depression Visibility Wind Speed Wind Dir Waves Ship Positions

Qm Of London

Last reported at 2016-Aug-25 19:33 UTC. Time now 2016-Aug-25 20:10 UTC.
Position N 37°25' E 025°20'.

Length 50 m; draft 2.7 m.

Type: Pleasure craft. MMSI: 319780000.

Date/timePositionNaut miles runAvg speedWind from/ knotsBaromVisibWave heightAir tempDewpointWater temp
2016-Aug-25 19:33N 37°25' E 025°20'0 0.0
2016-Aug-25 18:31N 37°25' E 025°20'0 0.0
2016-Aug-25 17:32N 37°25' E 025°20'0 0.0
2016-Aug-25 16:32N 37°25' E 025°20'0 0.0
2016-Aug-25 15:33N 37°25' E 025°20'0 0.0
2016-Aug-25 14:31N 37°25' E 025°20'0 0.0
2016-Aug-25 13:31N 37°25' E 025°20'0 0.0
2016-Aug-25 12:26N 37°25' E 025°20'0 0.0
2016-Aug-25 11:24N 37°25' E 025°20'0 0.0
2016-Aug-25 10:33N 37°25' E 025°20'0 0.0
2016-Aug-25 09:28N 37°25' E 025°20'0 0.0
2016-Aug-25 08:29N 37°25' E 025°20'0 0.0
2016-Aug-25 07:32N 37°25' E 025°20'0 0.0
2016-Aug-25 06:33N 37°25' E 025°20'4 1.9
2016-Aug-25 04:33N 37°22' E 025°17'1514.5
2016-Aug-25 03:31N 37°20' E 024°59'1212.4
2016-Aug-25 02:34N 37°23' E 024°44'4113.0
2016-Aug-24 23:25N 37°36' E 023°55'1214.2
2016-Aug-24 22:33N 37°42' E 023°41'1413.7
2016-Aug-24 21:33N 37°55' E 023°40'1 0.8
2016-Aug-24 20:33N 37°56' E 023°41'0 0.0
2016-Aug-24 19:31N 37°56' E 023°41'0 0.0
2016-Aug-24 18:32N 37°56' E 023°41'0 0.0
2016-Aug-24 17:32N 37°56' E 023°41'0 0.0
2016-Aug-24 16:33N 37°56' E 023°41'0 0.0
2016-Aug-24 15:28N 37°56' E 023°41'0 0.0
2016-Aug-24 14:31N 37°56' E 023°41'0 0.0
2016-Aug-24 13:32N 37°56' E 023°41'0 0.0
2016-Aug-24 12:33N 37°56' E 023°41'0 0.0
2016-Aug-24 11:33N 37°56' E 023°41'0 0.0
2016-Aug-24 10:31N 37°56' E 023°41'0 0.2
2016-Aug-24 09:33N 37°56' E 023°41'8 8.3
2016-Aug-24 08:33N 37°48' E 023°44'2 2.5
2016-Aug-24 07:33N 37°48' E 023°48'0 0.0
2016-Aug-24 06:22N 37°48' E 023°48'0 0.0
2016-Aug-24 04:29N 37°48' E 023°48'0 0.0
2016-Aug-24 03:33N 37°48' E 023°48'0 0.0
2016-Aug-24 02:33N 37°48' E 023°48'0 0.0
2016-Aug-24 01:28N 37°48' E 023°48'0 0.0
2016-Aug-24 00:29N 37°48' E 023°48'0 0.0
2016-Aug-23 23:32N 37°48' E 023°48'0 0.0
2016-Aug-23 22:33N 37°48' E 023°48'0 0.0
2016-Aug-23 21:31N 37°48' E 023°48'0 0.0
2016-Aug-23 20:31N 37°48' E 023°47'0 0.0
2016-Aug-23 19:32N 37°48' E 023°48'0 0.3
2016-Aug-23 18:34N 37°48' E 023°47'1111.4
2016-Aug-23 17:33N 37°49' E 023°33'9 9.1
2016-Aug-23 16:33N 37°52' E 023°22'1110.6
2016-Aug-23 15:31N 37°53' E 023°08'  
2016-Aug-16 04:33N 38°10' E 015°35'9 9.1
2016-Aug-16 03:33N 38°18' E 015°41'1110.8
2016-Aug-16 02:33N 38°28' E 015°35'  
Track history (hours):
 
Tides and Currents Weather Stations Pressure Air Temp Water Temp Dewpoint Dewpoint Depression Visibility Wind Speed Wind Dir Waves Ship Positions

Qm Of London

Last reported at 2016-Aug-25 19:33 UTC. Time now 2016-Aug-25 20:10 UTC.
Position N 37°25' E 025°20'.

Length 50 m; draft 2.7 m.

Type: Pleasure craft. MMSI: 319780000.

Date/timePositionNaut miles runAvg speedWind from/ knotsBaromVisibWave heightAir tempDewpointWater temp
2016-Aug-25 19:33N 37°25' E 025°20'0 0.0
2016-Aug-25 18:31N 37°25' E 025°20'0 0.0
2016-Aug-25 17:32N 37°25' E 025°20'0 0.0
2016-Aug-25 16:32N 37°25' E 025°20'0 0.0
2016-Aug-25 15:33N 37°25' E 025°20'0 0.0
2016-Aug-25 14:31N 37°25' E 025°20'0 0.0
2016-Aug-25 13:31N 37°25' E 025°20'0 0.0
2016-Aug-25 12:26N 37°25' E 025°20'0 0.0
2016-Aug-25 11:24N 37°25' E 025°20'0 0.0
2016-Aug-25 10:33N 37°25' E 025°20'0 0.0
2016-Aug-25 09:28N 37°25' E 025°20'0 0.0
2016-Aug-25 08:29N 37°25' E 025°20'0 0.0
2016-Aug-25 07:32N 37°25' E 025°20'0 0.0
2016-Aug-25 06:33N 37°25' E 025°20'4 1.9
2016-Aug-25 04:33N 37°22' E 025°17'1514.5
2016-Aug-25 03:31N 37°20' E 024°59'1212.4
2016-Aug-25 02:34N 37°23' E 024°44'4113.0
2016-Aug-24 23:25N 37°36' E 023°55'1214.2
2016-Aug-24 22:33N 37°42' E 023°41'1413.7
2016-Aug-24 21:33N 37°55' E 023°40'1 0.8
2016-Aug-24 20:33N 37°56' E 023°41'0 0.0
2016-Aug-24 19:31N 37°56' E 023°41'0 0.0
2016-Aug-24 18:32N 37°56' E 023°41'0 0.0
2016-Aug-24 17:32N 37°56' E 023°41'0 0.0
2016-Aug-24 16:33N 37°56' E 023°41'0 0.0
2016-Aug-24 15:28N 37°56' E 023°41'0 0.0
2016-Aug-24 14:31N 37°56' E 023°41'0 0.0
2016-Aug-24 13:32N 37°56' E 023°41'0 0.0
2016-Aug-24 12:33N 37°56' E 023°41'0 0.0
2016-Aug-24 11:33N 37°56' E 023°41'0 0.0
2016-Aug-24 10:31N 37°56' E 023°41'0 0.2
2016-Aug-24 09:33N 37°56' E 023°41'8 8.3
2016-Aug-24 08:33N 37°48' E 023°44'2 2.5
2016-Aug-24 07:33N 37°48' E 023°48'0 0.0
2016-Aug-24 06:22N 37°48' E 023°48'0 0.0
2016-Aug-24 04:29N 37°48' E 023°48'0 0.0
2016-Aug-24 03:33N 37°48' E 023°48'0 0.0
2016-Aug-24 02:33N 37°48' E 023°48'0 0.0
2016-Aug-24 01:28N 37°48' E 023°48'0 0.0
2016-Aug-24 00:29N 37°48' E 023°48'0 0.0
2016-Aug-23 23:32N 37°48' E 023°48'0 0.0
2016-Aug-23 22:33N 37°48' E 023°48'0 0.0
2016-Aug-23 21:31N 37°48' E 023°48'0 0.0
2016-Aug-23 20:31N 37°48' E 023°47'0 0.0
2016-Aug-23 19:32N 37°48' E 023°48'0 0.3
2016-Aug-23 18:34N 37°48' E 023°47'1111.4
2016-Aug-23 17:33N 37°49' E 023°33'9 9.1
2016-Aug-23 16:33N 37°52' E 023°22'1110.6
2016-Aug-23 15:31N 37°53' E 023°08'  
2016-Aug-16 04:33N 38°10' E 015°35'9 9.1
2016-Aug-16 03:33N 38°18' E 015°41'1110.8
2016-Aug-16 02:33N 38°28' E 015°35'  

Dump ship's entire track history